Time;durP1;ratioP1;P1;durP2;ratioP2;P2;SDS_P1;SDS_P2;PMS_P1;PMS_P2;Temp;Humidity;BMP_temperature;BMP_pressure;BME280_temperature;BME280_humidity;BME280_pressure;Samples;Min_cycle;Max_cycle;Signal;HPM_P1;HPM_P2
2022/10/07 00:00:52;;;;;;;14.48;3.78;;;10.30;99.90;;;;;;5072610;28;20028;-74
2022/10/07 00:03:18;;;;;;;12.75;4.30;;;10.30;99.90;;;;;;5071909;28;20025;-75
2022/10/07 00:05:44;;;;;;;14.30;4.13;;;10.20;99.90;;;;;;5070970;28;20385;-75
2022/10/07 00:08:10;;;;;;;12.63;3.75;;;10.30;99.90;;;;;;5071990;28;20029;-75
2022/10/07 00:10:41;;;;;;;12.40;4.60;;;10.40;99.90;;;;;;5066877;28;20067;-76
2022/10/07 00:13:09;;;;;;;11.68;3.88;;;10.40;99.90;;;;;;5063191;28;20035;-77
2022/10/07 00:15:35;;;;;;;12.73;3.65;;;10.40;99.90;;;;;;5074293;28;20024;-77
2022/10/07 00:18:01;;;;;;;9.05;4.40;;;10.50;99.90;;;;;;5075875;28;20017;-76
2022/10/07 00:20:26;;;;;;;13.57;3.70;;;10.50;99.90;;;;;;5075308;28;20028;-75
2022/10/07 00:22:52;;;;;;;16.08;4.47;;;10.50;99.90;;;;;;5076123;28;20380;-75
2022/10/07 00:25:18;;;;;;;14.80;3.83;;;10.50;99.90;;;;;;5075587;28;20109;-76
2022/10/07 00:27:44;;;;;;;14.40;4.65;;;10.60;99.90;;;;;;5075520;28;20527;-76
2022/10/07 00:30:10;;;;;;;14.68;4.05;;;10.60;99.90;;;;;;5075937;28;20121;-76
2022/10/07 00:32:35;;;;;;;14.02;4.63;;;10.50;99.90;;;;;;5061394;28;20629;-76
2022/10/07 00:35:01;;;;;;;9.50;3.90;;;10.60;99.90;;;;;;5075328;28;20037;-76
2022/10/07 00:37:27;;;;;;;17.42;4.82;;;10.50;99.90;;;;;;5075274;28;20027;-75
2022/10/07 00:39:52;;;;;;;14.77;4.65;;;10.50;99.90;;;;;;5075606;28;20027;-75
2022/10/07 00:42:18;;;;;;;18.88;4.70;;;10.50;99.90;;;;;;5074901;28;20035;-75
2022/10/07 00:44:45;;;;;;;16.83;4.82;;;10.50;99.90;;;;;;5059121;28;20036;-75
2022/10/07 00:47:23;;;;;;;20.33;4.82;;;10.50;99.90;;;;;;5062680;28;20525;-76
2022/10/07 00:50:09;;;;;;;14.55;3.97;;;10.50;99.90;;;;;;5075065;28;20404;-76
2022/10/07 00:52:38;;;;;;;21.30;4.35;;;10.50;99.90;;;;;;5074855;28;20040;-75
2022/10/07 00:55:09;;;;;;;15.90;4.38;;;10.50;99.90;;;;;;5074515;28;20016;-77
2022/10/07 00:57:36;;;;;;;13.55;4.45;;;10.50;99.90;;;;;;5074987;28;20021;-75
2022/10/07 01:00:05;;;;;;;17.63;4.90;;;10.50;99.90;;;;;;5074906;28;20021;-76
2022/10/07 01:02:32;;;;;;;14.02;4.43;;;10.40;99.90;;;;;;5074055;28;20365;-76
2022/10/07 01:04:58;;;;;;;22.65;5.05;;;10.40;99.90;;;;;;5074742;28;20029;-76
2022/10/07 01:07:25;;;;;;;15.93;4.63;;;10.40;99.90;;;;;;5074069;28;20043;-76
2022/10/07 01:09:52;;;;;;;12.73;4.28;;;10.30;99.90;;;;;;5074142;28;20493;-76
2022/10/07 01:12:42;;;;;;;12.75;4.53;;;10.30;99.90;;;;;;5074972;28;20099;-76
2022/10/07 01:15:15;;;;;;;18.85;6.47;;;10.30;99.90;;;;;;5074899;28;20086;-75
2022/10/07 01:17:56;;;;;;;23.45;4.80;;;10.30;99.90;;;;;;5074399;28;20037;-76
2022/10/07 01:20:32;;;;;;;10.95;4.05;;;10.30;99.90;;;;;;5074880;28;20025;-76
2022/10/07 01:23:06;;;;;;;19.00;4.25;;;10.20;99.90;;;;;;5073993;28;20025;-76
2022/10/07 01:25:50;;;;;;;18.02;5.50;;;10.20;99.90;;;;;;5074306;28;20053;-76
2022/10/07 01:28:25;;;;;;;16.35;4.15;;;10.20;99.90;;;;;;5074788;28;20022;-76
2022/10/07 01:30:56;;;;;;;17.15;4.45;;;10.20;99.90;;;;;;5073977;28;20032;-76
2022/10/07 01:33:28;;;;;;;13.98;4.18;;;10.20;99.90;;;;;;5074801;28;20376;-75
2022/10/07 01:35:57;;;;;;;13.82;4.65;;;10.20;99.90;;;;;;5074622;28;20016;-76
2022/10/07 01:38:27;;;;;;;13.32;3.90;;;10.20;99.90;;;;;;5073803;28;20066;-76
2022/10/07 01:40:59;;;;;;;11.18;3.97;;;10.20;99.90;;;;;;5074307;28;20016;-76
2022/10/07 01:43:25;;;;;;;17.05;5.28;;;10.10;99.90;;;;;;5073635;28;20476;-75
2022/10/07 01:45:53;;;;;;;21.30;5.60;;;10.20;99.90;;;;;;5074491;28;20159;-76
2022/10/07 01:48:19;;;;;;;23.23;5.15;;;10.10;99.90;;;;;;5074218;28;20474;-76
2022/10/07 01:50:45;;;;;;;17.55;4.30;;;10.10;99.90;;;;;;5073537;28;20144;-76
2022/10/07 01:53:19;;;;;;;18.77;4.63;;;10.20;99.90;;;;;;5074261;28;20025;-75
2022/10/07 01:56:10;;;;;;;21.15;5.72;;;10.20;99.90;;;;;;5074009;28;20085;-76
2022/10/07 01:59:05;;;;;;;18.33;4.80;;;10.20;99.90;;;;;;5073436;28;20021;-76
2022/10/07 02:01:53;;;;;;;20.52;4.55;;;10.10;99.90;;;;;;5073966;28;20044;-75
2022/10/07 02:04:29;;;;;;;14.93;4.68;;;10.10;99.90;;;;;;5074157;28;20054;-75
2022/10/07 02:07:32;;;;;;;17.73;5.57;;;10.00;99.90;;;;;;5075297;28;20024;-76
2022/10/07 02:10:02;;;;;;;17.20;4.53;;;10.00;99.90;;;;;;5074488;28;20033;-76
2022/10/07 02:12:41;;;;;;;17.65;4.97;;;10.00;99.90;;;;;;5073062;28;20074;-75
2022/10/07 02:15:18;;;;;;;12.00;5.00;;;9.90;99.90;;;;;;5073806;28;20115;-75
2022/10/07 02:17:57;;;;;;;15.82;4.70;;;9.90;99.90;;;;;;5073558;28;20028;-76
2022/10/07 02:20:27;;;;;;;22.98;6.47;;;9.90;99.90;;;;;;5073250;28;20024;-75
2022/10/07 02:22:57;;;;;;;23.80;5.37;;;9.90;99.90;;;;;;5073460;28;20032;-76
2022/10/07 02:25:25;;;;;;;11.27;5.20;;;9.80;99.90;;;;;;5073762;28;20295;-76
2022/10/07 02:27:54;;;;;;;16.35;5.13;;;9.90;99.90;;;;;;5072901;28;20056;-73
2022/10/07 02:30:21;;;;;;;21.70;5.53;;;9.90;99.90;;;;;;5073508;28;20037;-76
2022/10/07 02:32:57;;;;;;;17.77;5.15;;;9.90;99.90;;;;;;5072498;28;20025;-75
2022/10/07 02:35:30;;;;;;;15.35;4.95;;;9.90;99.90;;;;;;5073516;28;20028;-76
2022/10/07 02:37:59;;;;;;;16.15;5.22;;;9.90;99.90;;;;;;5072805;28;20396;-74
2022/10/07 02:40:38;;;;;;;23.90;5.63;;;9.90;99.90;;;;;;5072447;28;20035;-76
2022/10/07 02:43:38;;;;;;;18.67;5.10;;;9.80;99.90;;;;;;5073464;28;20384;-76
2022/10/07 02:46:09;;;;;;;20.77;5.38;;;9.80;99.90;;;;;;5072844;28;20507;-75
2022/10/07 02:48:44;;;;;;;19.45;4.93;;;9.90;99.90;;;;;;5066742;28;20120;-75
2022/10/07 02:51:17;;;;;;;10.05;4.38;;;9.90;99.90;;;;;;5067711;28;20033;-74
2022/10/07 02:53:44;;;;;;;11.60;4.68;;;9.90;99.90;;;;;;5073140;28;20052;-76
2022/10/07 02:56:11;;;;;;;17.75;4.45;;;9.80;99.90;;;;;;5073846;28;20029;-74
2022/10/07 02:58:43;;;;;;;18.05;4.57;;;9.80;99.90;;;;;;5073583;28;20025;-74
2022/10/07 03:01:11;;;;;;;31.67;6.38;;;9.80;99.90;;;;;;5074983;28;20028;-74
2022/10/07 03:03:39;;;;;;;18.33;5.38;;;9.80;99.90;;;;;;5073240;28;20104;-75
2022/10/07 03:06:05;;;;;;;22.83;5.32;;;9.80;99.90;;;;;;5076472;28;20020;-75
2022/10/07 03:08:31;;;;;;;15.43;5.47;;;9.80;99.90;;;;;;5073127;28;20032;-74
2022/10/07 03:10:56;;;;;;;24.23;5.00;;;9.80;99.90;;;;;;5072959;28;20489;-76
2022/10/07 03:13:23;;;;;;;13.65;4.63;;;9.70;99.90;;;;;;5082562;28;20047;-76
2022/10/07 03:15:49;;;;;;;17.30;4.93;;;9.70;99.90;;;;;;5087686;28;20082;-76
2022/10/07 03:18:27;;;;;;;15.60;5.40;;;9.70;99.90;;;;;;5085757;28;20034;-75
2022/10/07 03:20:54;;;;;;;22.80;5.13;;;9.70;99.90;;;;;;5086418;28;20108;-75
2022/10/07 03:23:21;;;;;;;21.58;5.55;;;9.70;99.90;;;;;;5084784;28;20013;-75
2022/10/07 03:25:51;;;;;;;17.38;4.38;;;9.70;99.90;;;;;;5081284;28;20096;-75
2022/10/07 03:28:19;;;;;;;19.23;4.73;;;9.70;99.90;;;;;;5086564;28;20028;-76
2022/10/07 03:30:46;;;;;;;22.73;5.80;;;9.60;99.90;;;;;;5081877;28;20298;-76
2022/10/07 03:33:12;;;;;;;13.93;4.50;;;9.70;99.90;;;;;;5084801;28;20024;-75
2022/10/07 03:35:38;;;;;;;26.95;6.40;;;9.70;99.90;;;;;;5086332;28;20032;-75
2022/10/07 03:38:07;;;;;;;19.23;5.20;;;9.70;99.90;;;;;;5081240;28;20070;-77
2022/10/07 03:40:36;;;;;;;19.83;4.88;;;9.70;99.90;;;;;;5072239;28;20381;-76
2022/10/07 03:43:03;;;;;;;15.40;4.10;;;9.70;99.90;;;;;;5074513;28;20027;-75
2022/10/07 03:45:34;;;;;;;15.07;4.75;;;9.70;99.90;;;;;;5074841;28;20350;-75
2022/10/07 03:47:59;;;;;;;16.13;4.78;;;9.70;99.90;;;;;;5073410;28;20107;-75
2022/10/07 03:50:25;;;;;;;16.38;5.43;;;9.70;99.90;;;;;;5074091;28;20071;-75
2022/10/07 03:52:51;;;;;;;17.67;5.05;;;9.70;99.90;;;;;;5072247;28;20066;-74
2022/10/07 03:55:17;;;;;;;19.88;5.15;;;9.70;99.90;;;;;;5072162;28;20028;-74
2022/10/07 03:57:49;;;;;;;26.33;5.30;;;9.70;99.90;;;;;;5071689;28;20017;-74
2022/10/07 04:00:15;;;;;;;15.38;4.65;;;9.70;99.90;;;;;;5072144;28;20089;-73
2022/10/07 04:02:41;;;;;;;18.52;4.57;;;9.70;99.90;;;;;;5072081;28;20029;-73
2022/10/07 04:05:07;;;;;;;18.38;4.38;;;9.70;99.90;;;;;;5071788;28;20032;-74
2022/10/07 04:07:33;;;;;;;18.77;5.35;;;9.70;99.90;;;;;;5072520;28;20021;-74
2022/10/07 04:09:58;;;;;;;18.85;4.43;;;9.70;99.90;;;;;;5072332;28;20040;-74
2022/10/07 04:12:24;;;;;;;19.77;5.05;;;9.70;99.90;;;;;;5071617;28;20057;-74
2022/10/07 04:14:49;;;;;;;18.02;4.53;;;9.70;99.90;;;;;;5072540;28;20114;-75
2022/10/07 04:17:18;;;;;;;16.95;4.75;;;9.60;99.90;;;;;;5072648;28;20025;-74
2022/10/07 04:19:44;;;;;;;22.60;5.28;;;9.70;99.90;;;;;;5071062;28;20129;-74
2022/10/07 04:22:10;;;;;;;20.02;5.22;;;9.70;99.90;;;;;;5072037;28;20047;-74
2022/10/07 04:24:35;;;;;;;14.68;4.78;;;9.70;99.90;;;;;;5071644;28;20501;-74
2022/10/07 04:27:03;;;;;;;15.98;4.28;;;9.60;99.90;;;;;;5071437;28;20028;-74
2022/10/07 04:29:30;;;;;;;18.63;4.53;;;9.70;99.90;;;;;;5071377;28;20028;-75
2022/10/07 04:31:57;;;;;;;18.17;5.18;;;9.70;99.90;;;;;;5071699;28;20060;-74
2022/10/07 04:34:22;;;;;;;16.45;4.55;;;9.60;99.90;;;;;;5071552;28;20029;-74
2022/10/07 04:36:48;;;;;;;19.90;5.35;;;9.60;99.90;;;;;;5071663;28;20104;-74
2022/10/07 04:39:13;;;;;;;18.23;5.10;;;9.70;99.90;;;;;;5071093;28;20029;-74
2022/10/07 04:41:39;;;;;;;18.70;5.07;;;9.60;99.90;;;;;;5071418;28;20090;-75
2022/10/07 04:44:04;;;;;;;16.13;5.35;;;9.60;99.90;;;;;;5072233;28;20028;-74
2022/10/07 04:46:31;;;;;;;17.70;5.43;;;9.70;99.90;;;;;;5053042;28;20027;-75
2022/10/07 04:48:57;;;;;;;24.67;5.88;;;9.70;99.90;;;;;;5071842;28;20029;-74
2022/10/07 04:51:23;;;;;;;15.27;4.72;;;9.70;99.90;;;;;;5071578;28;20032;-75
2022/10/07 04:53:52;;;;;;;12.77;4.75;;;9.70;99.90;;;;;;5071187;28;20021;-75
2022/10/07 04:56:18;;;;;;;18.48;5.18;;;9.70;99.90;;;;;;5071282;28;20031;-74
2022/10/07 04:58:44;;;;;;;17.42;5.07;;;9.70;99.90;;;;;;5071463;28;20089;-74
2022/10/07 05:01:10;;;;;;;14.73;5.05;;;9.80;99.90;;;;;;5072563;28;20024;-74
2022/10/07 05:03:37;;;;;;;22.02;4.78;;;9.70;99.90;;;;;;5074709;28;20476;-74
2022/10/07 05:06:03;;;;;;;17.75;5.03;;;9.70;99.90;;;;;;5074624;28;20044;-74
2022/10/07 05:08:30;;;;;;;16.13;3.92;;;9.70;99.90;;;;;;5073781;28;20035;-75
2022/10/07 05:10:57;;;;;;;16.27;5.28;;;9.70;99.90;;;;;;5074686;28;20392;-73
2022/10/07 05:13:24;;;;;;;17.48;4.93;;;9.80;99.90;;;;;;5074828;28;20102;-74
2022/10/07 05:15:53;;;;;;;23.67;4.80;;;9.80;99.90;;;;;;5074072;28;20039;-75
2022/10/07 05:18:20;;;;;;;22.70;6.20;;;9.90;99.90;;;;;;5075244;28;20063;-74
2022/10/07 05:20:47;;;;;;;17.13;4.47;;;9.90;99.90;;;;;;5074376;28;20052;-74
2022/10/07 05:23:18;;;;;;;15.00;4.15;;;9.90;99.90;;;;;;5073664;28;20464;-74
2022/10/07 05:25:44;;;;;;;18.92;4.68;;;9.90;99.90;;;;;;5059698;28;20477;-73
2022/10/07 05:28:11;;;;;;;25.08;5.07;;;10.00;99.90;;;;;;5060090;28;20027;-74
2022/10/07 05:30:37;;;;;;;16.00;4.85;;;10.00;99.90;;;;;;5071166;28;20040;-74
2022/10/07 05:33:03;;;;;;;13.45;3.90;;;10.00;99.90;;;;;;5055818;28;20071;-73
2022/10/07 05:35:30;;;;;;;22.08;5.47;;;10.10;99.90;;;;;;5054005;28;20021;-74
2022/10/07 05:37:56;;;;;;;11.88;4.65;;;10.10;99.90;;;;;;5054553;28;20045;-74
2022/10/07 05:40:22;;;;;;;18.80;5.00;;;10.20;99.90;;;;;;5054645;28;20077;-74
2022/10/07 05:42:48;;;;;;;17.33;4.25;;;10.30;99.90;;;;;;5057645;28;20028;-74
2022/10/07 05:45:14;;;;;;;10.82;3.78;;;10.30;99.90;;;;;;5067616;28;20054;-73
2022/10/07 05:47:39;;;;;;;13.75;4.10;;;10.40;99.90;;;;;;5072610;28;20033;-75
2022/10/07 05:50:06;;;;;;;15.10;4.25;;;10.40;99.90;;;;;;5070069;28;20025;-75
2022/10/07 05:52:35;;;;;;;19.38;4.65;;;10.40;99.90;;;;;;5068076;28;20388;-74
2022/10/07 05:55:01;;;;;;;17.38;4.55;;;10.50;99.90;;;;;;5070736;28;20099;-74
2022/10/07 05:57:26;;;;;;;16.25;4.78;;;10.50;99.90;;;;;;5068649;28;20167;-76
2022/10/07 05:59:52;;;;;;;13.93;4.00;;;10.50;99.90;;;;;;5069293;28;20028;-73
2022/10/07 06:02:18;;;;;;;16.92;4.82;;;10.50;99.90;;;;;;5070829;28;20017;-74
2022/10/07 06:04:47;;;;;;;18.35;3.80;;;10.50;99.90;;;;;;5074679;28;20035;-75
2022/10/07 06:07:14;;;;;;;20.02;6.45;;;10.60;99.90;;;;;;5069974;28;20032;-73
2022/10/07 06:15:09;;;;;;;19.02;3.88;;;10.60;99.90;;;;;;5074123;28;20039;-75
2022/10/07 06:17:40;;;;;;;16.65;3.90;;;10.70;99.90;;;;;;5072012;28;20114;-75
2022/10/07 06:20:06;;;;;;;12.30;4.40;;;10.60;99.90;;;;;;5071939;28;20032;-74
2022/10/07 06:22:32;;;;;;;20.65;4.03;;;10.60;99.90;;;;;;5062278;28;20090;-74
2022/10/07 06:25:01;;;;;;;16.40;3.83;;;10.70;99.90;;;;;;5067616;28;20076;-74
2022/10/07 06:27:27;;;;;;;14.18;4.22;;;10.60;99.90;;;;;;5062777;28;20021;-76
2022/10/07 06:29:54;;;;;;;17.75;3.72;;;10.60;99.90;;;;;;5060466;28;20032;-76
2022/10/07 06:32:19;;;;;;;19.38;3.90;;;10.60;99.90;;;;;;5070846;28;20082;-75
2022/10/07 06:34:48;;;;;;;14.00;4.82;;;10.60;99.90;;;;;;5070790;28;20507;-75
2022/10/07 06:37:13;;;;;;;14.18;3.28;;;10.60;99.90;;;;;;5071906;28;20016;-74
2022/10/07 06:39:39;;;;;;;25.13;4.90;;;10.60;99.90;;;;;;5057560;28;20031;-73
2022/10/07 06:42:04;;;;;;;14.52;3.83;;;10.70;99.90;;;;;;5070248;28;20009;-73
2022/10/07 06:44:30;;;;;;;15.15;4.32;;;10.70;99.90;;;;;;5068724;28;20061;-74
2022/10/07 06:46:56;;;;;;;15.77;4.03;;;10.70;99.90;;;;;;5069293;28;20036;-74
2022/10/07 06:49:21;;;;;;;22.58;4.25;;;10.70;99.90;;;;;;5061442;28;20028;-74
2022/10/07 06:51:47;;;;;;;14.88;4.53;;;10.80;99.90;;;;;;5068923;28;20032;-73
2022/10/07 06:54:12;;;;;;;11.32;4.07;;;10.80;99.90;;;;;;5070980;28;20023;-72
2022/10/07 06:56:38;;;;;;;17.83;4.50;;;11.00;99.90;;;;;;5068782;28;20465;-72
2022/10/07 06:59:04;;;;;;;16.98;3.58;;;11.10;99.90;;;;;;5052842;28;20025;-72
2022/10/07 07:01:30;;;;;;;16.35;3.72;;;11.20;99.90;;;;;;5052150;28;20021;-73
2022/10/07 07:03:56;;;;;;;17.77;3.97;;;11.20;99.90;;;;;;5053196;28;20059;-74
2022/10/07 07:06:22;;;;;;;17.50;4.00;;;11.20;99.90;;;;;;5052873;28;20023;-72
2022/10/07 07:08:49;;;;;;;22.80;4.22;;;11.40;99.90;;;;;;5051643;28;20110;-73
2022/10/07 07:14:01;;;;;;;19.73;4.38;;;11.30;99.90;;;;;;5065446;28;20043;-73
2022/10/07 07:16:27;;;;;;;13.43;4.13;;;11.30;99.90;;;;;;5069797;28;20025;-73
2022/10/07 07:18:54;;;;;;;16.23;4.32;;;11.30;99.90;;;;;;5058282;28;20029;-73
2022/10/07 07:21:20;;;;;;;15.98;3.75;;;11.30;99.90;;;;;;5057200;28;20029;-74
2022/10/07 07:23:45;;;;;;;20.15;4.20;;;11.30;99.90;;;;;;5059616;28;20143;-75
2022/10/07 07:26:12;;;;;;;17.58;4.63;;;11.40;99.90;;;;;;5052507;28;20113;-74
2022/10/07 07:28:38;;;;;;;14.55;4.18;;;11.30;99.90;;;;;;5051291;28;20029;-74
2022/10/07 07:31:11;;;;;;;23.10;3.88;;;11.30;99.90;;;;;;5052264;28;20033;-73
2022/10/07 07:33:37;;;;;;;14.77;3.67;;;11.40;99.90;;;;;;5062236;28;20028;-74
2022/10/07 07:36:16;;;;;;;16.83;3.50;;;11.40;99.90;;;;;;5069828;28;20122;-73
2022/10/07 07:38:48;;;;;;;19.92;4.72;;;11.50;99.90;;;;;;5062844;28;20081;-74
2022/10/07 07:41:14;;;;;;;17.25;4.53;;;11.50;99.90;;;;;;5054013;28;20025;-73
2022/10/07 07:43:39;;;;;;;12.43;3.63;;;11.60;99.90;;;;;;5063378;28;20039;-72
2022/10/07 07:46:05;;;;;;;18.05;3.67;;;11.70;99.90;;;;;;5070013;28;20016;-73
2022/10/07 07:48:31;;;;;;;16.80;4.05;;;11.60;99.90;;;;;;5064532;28;20029;-74
2022/10/07 07:50:56;;;;;;;20.33;3.35;;;11.70;99.90;;;;;;5053103;28;20050;-75
2022/10/07 07:53:22;;;;;;;9.55;4.03;;;11.70;99.90;;;;;;5068846;28;20012;-74
2022/10/07 07:55:57;;;;;;;12.68;3.83;;;11.80;99.90;;;;;;5068278;28;20028;-75
2022/10/07 07:58:23;;;;;;;27.80;5.25;;;11.80;99.90;;;;;;5065713;28;20033;-74
2022/10/07 08:01:18;;;;;;;12.93;3.88;;;11.90;99.90;;;;;;5068698;28;20055;-75
2022/10/07 08:03:45;;;;;;;11.52;3.55;;;12.00;99.90;;;;;;5070039;28;20093;-73
2022/10/07 08:06:13;;;;;;;23.80;3.95;;;12.10;99.90;;;;;;5060389;28;20032;-74
2022/10/07 08:08:47;;;;;;;17.58;4.43;;;12.20;99.90;;;;;;5063649;28;20032;-75
2022/10/07 08:11:15;;;;;;;15.95;4.13;;;12.20;99.90;;;;;;5051134;28;20037;-74
2022/10/07 08:13:42;;;;;;;16.30;3.70;;;12.30;99.90;;;;;;5051525;28;20018;-75
2022/10/07 08:16:11;;;;;;;13.32;4.03;;;12.30;99.90;;;;;;5071559;28;20056;-75
2022/10/07 08:18:38;;;;;;;22.53;3.83;;;12.40;99.90;;;;;;5071105;28;20021;-74
2022/10/07 08:21:06;;;;;;;14.77;4.30;;;12.50;99.90;;;;;;5064943;28;20726;-76
2022/10/07 08:23:34;;;;;;;13.77;3.33;;;12.60;99.90;;;;;;5069379;28;20017;-76
2022/10/07 08:25:59;;;;;;;15.60;4.13;;;12.80;99.90;;;;;;5053097;28;20057;-76
2022/10/07 08:28:26;;;;;;;9.32;3.03;;;13.00;99.90;;;;;;5050081;28;20068;-76
2022/10/07 08:30:53;;;;;;;16.00;3.42;;;13.10;99.90;;;;;;5050152;28;20056;-76
2022/10/07 08:33:19;;;;;;;13.25;4.32;;;13.20;99.90;;;;;;5063671;28;20074;-75
2022/10/07 08:36:09;;;;;;;18.13;3.35;;;13.20;99.90;;;;;;5052454;28;20057;-75
2022/10/07 08:38:36;;;;;;;16.58;3.42;;;13.20;99.90;;;;;;5054801;28;20035;-74
2022/10/07 08:41:39;;;;;;;18.02;4.13;;;13.20;99.90;;;;;;5055516;28;20029;-76
2022/10/07 08:44:16;;;;;;;16.52;3.45;;;13.30;99.90;;;;;;5023939;28;20112;-75
2022/10/07 08:46:55;;;;;;;18.20;3.90;;;13.40;99.90;;;;;;5054782;28;20033;-75
2022/10/07 08:49:45;;;;;;;18.05;4.25;;;13.40;99.90;;;;;;5055565;28;20131;-75
2022/10/07 08:52:28;;;;;;;16.17;4.13;;;13.60;99.90;;;;;;5055571;28;20024;-75
2022/10/07 08:54:54;;;;;;;15.98;4.90;;;13.70;99.90;;;;;;5055434;28;20473;-75
2022/10/07 08:58:04;;;;;;;16.92;4.28;;;13.80;99.90;;;;;;5055521;28;20021;-75
2022/10/07 09:00:48;;;;;;;21.48;4.03;;;13.90;99.90;;;;;;5054616;28;20487;-76
2022/10/07 09:03:23;;;;;;;20.98;3.88;;;14.00;99.90;;;;;;5055519;28;20349;-75
2022/10/07 09:05:50;;;;;;;12.85;3.63;;;14.00;99.90;;;;;;5055448;28;20032;-75
2022/10/07 09:08:27;;;;;;;17.73;4.25;;;14.10;99.90;;;;;;5054445;28;20106;-75
2022/10/07 09:10:55;;;;;;;15.65;4.18;;;14.30;99.90;;;;;;5055435;28;20045;-74
2022/10/07 09:13:36;;;;;;;15.88;3.65;;;14.40;99.90;;;;;;5055502;28;20422;-75
2022/10/07 09:16:13;;;;;;;;;;;14.60;99.90;;;;;;5074205;28;20052;-75
2022/10/07 09:18:44;;;;;;;18.02;4.13;;;14.70;99.90;;;;;;5075074;28;19904;-76
2022/10/07 09:21:41;;;;;;;18.33;3.83;;;14.70;99.90;;;;;;5074562;28;20469;-76
2022/10/07 09:24:21;;;;;;;12.88;4.03;;;14.80;99.90;;;;;;5074886;28;20496;-76
2022/10/07 09:26:47;;;;;;;;;;;14.90;99.90;;;;;;5075386;28;20104;-76
2022/10/07 09:29:14;;;;;;;10.60;3.10;;;15.00;99.90;;;;;;5073995;28;20057;-75
2022/10/07 09:31:40;;;;;;;25.95;4.20;;;15.00;99.90;;;;;;5075018;28;20033;-76
2022/10/07 09:34:17;;;;;;;16.98;4.63;;;15.10;99.90;;;;;;5075465;28;20373;-76
2022/10/07 09:37:07;;;;;;;19.27;4.25;;;15.20;99.90;;;;;;5074323;28;20028;-75
2022/10/07 09:39:33;;;;;;;10.27;3.25;;;15.30;99.90;;;;;;5074333;28;20027;-75
2022/10/07 09:42:02;;;;;;;17.45;4.47;;;15.30;99.90;;;;;;5074540;28;20032;-75
2022/10/07 09:44:28;;;;;;;11.60;3.83;;;15.20;99.90;;;;;;5074571;28;20021;-76
2022/10/07 09:46:58;;;;;;;12.25;3.38;;;15.10;99.90;;;;;;5074107;28;20511;-75
2022/10/07 09:49:26;;;;;;;14.77;3.63;;;15.10;99.90;;;;;;5073566;28;20119;-76
2022/10/07 09:52:14;;;;;;;12.88;3.40;;;15.30;99.90;;;;;;5074704;28;20373;-76
2022/10/07 09:54:41;;;;;;;14.35;3.15;;;15.30;99.90;;;;;;5074521;28;20035;-76
2022/10/07 09:57:32;;;;;;;11.63;2.92;;;15.60;99.90;;;;;;5074029;28;20118;-75
2022/10/07 10:00:13;;;;;;;15.85;3.33;;;15.70;99.90;;;;;;5074854;28;20078;-77
2022/10/07 10:02:42;;;;;;;13.52;3.63;;;15.80;99.90;;;;;;5074239;28;20043;-75
2022/10/07 10:05:19;;;;;;;14.25;3.55;;;15.90;99.90;;;;;;5074284;28;20021;-75
2022/10/07 10:07:46;;;;;;;15.32;3.10;;;15.90;99.90;;;;;;5074131;28;20461;-76
2022/10/07 10:10:20;;;;;;;14.95;2.97;;;16.10;99.90;;;;;;5073465;28;20047;-76
2022/10/07 10:12:51;;;;;;;16.90;2.88;;;16.20;99.90;;;;;;5074192;28;20041;-75
2022/10/07 10:15:24;;;;;;;12.35;3.05;;;16.20;99.90;;;;;;5073842;28;20025;-76
2022/10/07 10:17:50;;;;;;;20.30;3.13;;;16.30;99.90;;;;;;5073384;28;20372;-74
2022/10/07 10:20:31;;;;;;;15.55;3.42;;;16.30;99.90;;;;;;5074298;28;20024;-77
2022/10/07 10:23:00;;;;;;;22.85;4.07;;;16.40;99.90;;;;;;5073988;28;20031;-75
2022/10/07 10:28:42;;;;;;;17.17;3.45;;;16.70;99.90;;;;;;5074008;28;20094;-74
2022/10/07 10:31:35;;;;;;;15.45;3.13;;;16.80;99.90;;;;;;5073277;28;20110;-77
2022/10/07 10:34:19;;;;;;;16.60;3.25;;;16.90;99.90;;;;;;5074024;28;20032;-75
2022/10/07 10:36:53;;;;;;;8.18;2.38;;;16.90;99.90;;;;;;5061230;28;20028;-75
2022/10/07 10:39:27;;;;;;;16.90;3.60;;;17.00;99.90;;;;;;5073844;28;20099;-76
2022/10/07 10:42:02;;;;;;;8.68;2.90;;;17.10;99.90;;;;;;5074141;28;20024;-75
2022/10/07 10:44:49;;;;;;;22.77;4.10;;;17.10;99.90;;;;;;5073354;28;20174;-77
2022/10/07 10:47:35;;;;;;;10.00;2.58;;;17.10;99.90;;;;;;5072765;28;20032;-75
2022/10/07 10:50:25;;;;;;;15.82;3.33;;;17.20;99.90;;;;;;5073119;28;20484;-76
2022/10/07 10:53:03;;;;;;;15.37;3.67;;;17.20;99.90;;;;;;5072668;28;20507;-76
2022/10/07 10:55:42;;;;;;;9.15;2.40;;;17.20;99.90;;;;;;5061255;28;20024;-77
2022/10/07 10:58:35;;;;;;;11.00;2.30;;;17.30;99.90;;;;;;5073179;28;20063;-76
2022/10/07 11:01:22;;;;;;;17.83;3.47;;;17.30;99.90;;;;;;5072322;28;20035;-76
2022/10/07 11:03:48;;;;;;;8.85;2.85;;;17.40;99.90;;;;;;5072844;28;20032;-77
2022/10/07 11:06:16;;;;;;;11.90;2.80;;;17.50;99.90;;;;;;5072575;28;20023;-75
2022/10/07 11:08:43;;;;;;;13.25;2.78;;;17.50;99.90;;;;;;5072513;28;20031;-76
2022/10/07 11:11:14;;;;;;;15.60;2.83;;;17.50;99.90;;;;;;5073594;28;20102;-77
2022/10/07 11:13:45;;;;;;;14.55;2.85;;;17.60;99.90;;;;;;5072274;28;20051;-76
2022/10/07 11:16:22;;;;;;;14.57;3.10;;;17.60;99.90;;;;;;5072613;28;20031;-76
2022/10/07 11:19:30;;;;;;;15.13;3.30;;;17.70;99.90;;;;;;5072942;28;20032;-75
2022/10/07 11:21:59;;;;;;;9.15;1.98;;;17.70;99.90;;;;;;5071146;28;20039;-75
2022/10/07 11:24:39;;;;;;;10.02;2.83;;;17.70;99.90;;;;;;5072598;28;20052;-76
2022/10/07 11:27:29;;;;;;;10.07;2.30;;;17.60;99.90;;;;;;5072769;28;20468;-75
2022/10/07 11:30:01;;;;;;;6.07;1.80;;;17.70;99.90;;;;;;5059353;28;20036;-75
2022/10/07 11:33:00;;;;;;;8.32;2.90;;;17.70;99.90;;;;;;5072645;28;20075;-76
2022/10/07 11:35:42;;;;;;;10.75;2.78;;;17.60;99.90;;;;;;5062092;28;20028;-76
2022/10/07 11:38:13;;;;;;;16.83;2.33;;;17.70;99.90;;;;;;5072759;28;20016;-76
2022/10/07 11:40:44;;;;;;;19.13;2.35;;;17.70;99.90;;;;;;5072335;28;20028;-76
2022/10/07 11:43:37;;;;;;;14.00;3.35;;;17.60;99.90;;;;;;5071748;28;20016;-76
2022/10/07 11:46:05;;;;;;;10.13;2.40;;;17.60;99.90;;;;;;5072204;28;20468;-77
2022/10/07 11:48:48;;;;;;;9.40;2.53;;;17.70;99.90;;;;;;5071194;28;20225;-76
2022/10/07 11:51:28;;;;;;;12.10;2.80;;;17.80;99.90;;;;;;5072271;28;20485;-75
2022/10/07 11:53:56;;;;;;;;;;;17.90;99.90;;;;;;5073433;28;20384;-76
2022/10/07 11:56:25;;;;;;;10.65;2.45;;;18.00;99.90;;;;;;5072195;28;20417;-77
2022/10/07 11:59:03;;;;;;;14.70;2.78;;;18.00;99.90;;;;;;5072302;28;20548;-76
2022/10/07 12:01:33;;;;;;;8.68;2.58;;;18.10;99.90;;;;;;5067891;28;20024;-76
2022/10/07 12:04:32;;;;;;;8.32;2.92;;;18.10;99.90;;;;;;5054407;28;20028;-76
2022/10/07 12:07:32;;;;;;;13.35;2.85;;;18.10;99.90;;;;;;5072586;28;20388;-76
2022/10/07 12:10:31;;;;;;;15.10;2.90;;;18.10;99.90;;;;;;5072018;28;20122;-75
2022/10/07 12:13:21;;;;;;;13.55;2.20;;;18.20;99.90;;;;;;5076318;28;20380;-76
2022/10/07 12:15:48;;;;;;;11.85;3.10;;;18.10;99.90;;;;;;5061495;28;20048;-75
2022/10/07 12:18:16;;;;;;;14.07;2.72;;;18.10;99.90;;;;;;5075336;28;20482;-76
2022/10/07 12:20:45;;;;;;;11.65;2.45;;;18.00;99.90;;;;;;5075657;28;20525;-74
2022/10/07 12:23:19;;;;;;;9.57;2.22;;;18.00;99.90;;;;;;5076051;28;20043;-76
2022/10/07 12:25:49;;;;;;;6.63;2.00;;;18.00;99.90;;;;;;5075256;28;20499;-76
2022/10/07 12:28:34;;;;;;;11.13;3.17;;;18.10;99.90;;;;;;5076048;28;20024;-77
2022/10/07 12:31:17;;;;;;;11.02;3.28;;;18.10;99.90;;;;;;5075563;28;20037;-76
2022/10/07 12:33:43;;;;;;;11.88;2.40;;;18.20;99.90;;;;;;5075814;28;20096;-76
2022/10/07 12:36:20;;;;;;;14.45;2.78;;;18.20;99.90;;;;;;5076016;28;20052;-75
2022/10/07 12:38:55;;;;;;;13.27;3.22;;;18.20;99.90;;;;;;5074906;28;20388;-76
2022/10/07 12:41:35;;;;;;;10.20;2.10;;;18.10;99.90;;;;;;5076230;28;20443;-77
2022/10/07 12:44:33;;;;;;;7.95;2.22;;;18.30;99.90;;;;;;5076841;28;20086;-75
2022/10/07 12:47:26;;;;;;;13.77;2.72;;;18.40;99.90;;;;;;5064312;28;20054;-76
2022/10/07 12:49:57;;;;;;;9.45;2.80;;;18.50;99.90;;;;;;5062367;28;20036;-75
2022/10/07 12:52:35;;;;;;;11.70;2.45;;;18.50;99.90;;;;;;5075995;28;20025;-76
2022/10/07 12:55:06;;;;;;;13.52;3.03;;;18.60;99.90;;;;;;5075477;28;20028;-75
2022/10/07 12:57:38;;;;;;;11.43;2.50;;;18.60;99.90;;;;;;5075518;28;20099;-75
2022/10/07 13:00:15;;;;;;;11.93;2.45;;;18.50;99.90;;;;;;5074944;28;20032;-76
2022/10/07 13:03:11;;;;;;;10.50;2.15;;;18.40;99.90;;;;;;5075872;28;20103;-76
2022/10/07 13:05:51;;;;;;;11.70;2.22;;;18.40;99.90;;;;;;5061695;28;20062;-75
2022/10/07 13:08:43;;;;;;;12.13;2.67;;;18.40;99.90;;;;;;5075641;28;20100;-77
2022/10/07 13:11:35;;;;;;;12.50;2.63;;;18.30;99.90;;;;;;5075522;28;20044;-75
2022/10/07 13:14:26;;;;;;;11.68;2.83;;;18.20;99.90;;;;;;5074840;28;20029;-76
2022/10/07 13:17:02;;;;;;;7.88;2.38;;;18.30;99.90;;;;;;5075567;28;20027;-75